Time;durP1;ratioP1;P1;durP2;ratioP2;P2;SDS_P1;SDS_P2;PMS_P1;PMS_P2;Temp;Humidity;BMP_temperature;BMP_pressure;BME280_temperature;BME280_humidity;BME280_pressure;Samples;Min_cycle;Max_cycle;Signal;HPM_P1;HPM_P2
2022/07/05 00:00:48;;;;;;;3.28;2.03;;;17.50;93.90;;;;;;5017620;28;20026;-33
2022/07/05 00:03:14;;;;;;;2.47;1.90;;;17.50;94.00;;;;;;5008189;28;20044;-33
2022/07/05 00:05:40;;;;;;;2.17;1.63;;;17.50;94.10;;;;;;5015408;28;20025;-34
2022/07/05 00:08:06;;;;;;;2.22;1.90;;;17.50;94.20;;;;;;5010077;28;20489;-34
2022/07/05 00:10:33;;;;;;;2.50;1.60;;;17.50;94.20;;;;;;5012816;28;20017;-34
2022/07/05 00:12:58;;;;;;;2.83;1.77;;;17.50;94.30;;;;;;5013342;28;20041;-34
2022/07/05 00:15:27;;;;;;;3.65;1.75;;;17.40;94.40;;;;;;5009671;28;20021;-33
2022/07/05 00:17:53;;;;;;;2.05;1.63;;;17.40;94.40;;;;;;5015697;28;20029;-34
2022/07/05 00:20:18;;;;;;;3.10;1.77;;;17.30;94.60;;;;;;5008817;28;20076;-34
2022/07/05 00:22:44;;;;;;;3.00;1.70;;;17.30;94.70;;;;;;5017009;28;20034;-35
2022/07/05 00:25:10;;;;;;;2.92;1.98;;;17.30;94.70;;;;;;5008621;28;20048;-33
2022/07/05 00:27:36;;;;;;;3.10;1.70;;;17.30;94.80;;;;;;5017521;28;20482;-34
2022/07/05 00:30:03;;;;;;;2.03;1.63;;;17.30;94.90;;;;;;5006662;28;20033;-34
2022/07/05 00:32:28;;;;;;;3.05;1.60;;;17.20;95.00;;;;;;5024480;28;20013;-36
2022/07/05 00:34:54;;;;;;;2.10;1.90;;;17.20;95.10;;;;;;5026039;28;20052;-34
2022/07/05 00:37:19;;;;;;;2.05;1.73;;;17.20;95.20;;;;;;5026084;28;20037;-35
2022/07/05 00:39:45;;;;;;;3.33;1.90;;;17.20;95.30;;;;;;5025751;28;20025;-34
2022/07/05 00:42:10;;;;;;;2.90;1.55;;;17.20;95.40;;;;;;5025104;28;20211;-33
2022/07/05 00:44:39;;;;;;;2.40;1.58;;;17.20;95.50;;;;;;5025914;28;20010;-33
2022/07/05 00:47:05;;;;;;;2.80;1.50;;;17.20;95.50;;;;;;5026146;28;20052;-33
2022/07/05 00:49:33;;;;;;;3.13;1.80;;;17.20;95.60;;;;;;5025202;28;20025;-34
2022/07/05 00:51:59;;;;;;;3.13;1.83;;;17.20;95.70;;;;;;5025922;28;20021;-34
2022/07/05 00:54:26;;;;;;;3.30;1.75;;;17.10;95.70;;;;;;5025546;28;20025;-34
2022/07/05 00:56:52;;;;;;;5.88;1.90;;;17.10;95.70;;;;;;5025062;28;20020;-33
2022/07/05 00:59:18;;;;;;;2.20;2.00;;;17.10;95.80;;;;;;5026547;28;20369;-34
2022/07/05 01:01:44;;;;;;;2.05;1.70;;;17.10;95.90;;;;;;5025941;28;20393;-35
2022/07/05 01:04:11;;;;;;;2.50;1.75;;;17.00;96.00;;;;;;5025447;28;20049;-34
2022/07/05 01:06:37;;;;;;;2.55;1.88;;;17.00;96.10;;;;;;5025666;28;20013;-34
2022/07/05 01:09:03;;;;;;;2.05;1.85;;;17.00;96.40;;;;;;5026274;28;20719;-34
2022/07/05 01:11:28;;;;;;;1.90;1.80;;;17.00;96.20;;;;;;5024815;28;20061;-34
2022/07/05 01:13:54;;;;;;;2.90;2.05;;;17.00;96.30;;;;;;5026827;28;20064;-33
2022/07/05 01:16:20;;;;;;;2.90;2.20;;;16.90;96.40;;;;;;5025886;28;20057;-34
2022/07/05 01:18:46;;;;;;;2.05;1.83;;;16.90;96.50;;;;;;5024625;28;20049;-34
2022/07/05 01:21:15;;;;;;;3.33;1.85;;;16.90;96.60;;;;;;5026321;28;20037;-34
2022/07/05 01:23:40;;;;;;;2.22;1.75;;;16.80;96.70;;;;;;5025172;28;20034;-34
2022/07/05 01:26:06;;;;;;;3.13;1.77;;;16.80;96.80;;;;;;5025362;28;20026;-35
2022/07/05 01:28:32;;;;;;;2.60;1.92;;;16.80;96.90;;;;;;5024716;28;20029;-36
2022/07/05 01:31:00;;;;;;;2.70;2.20;;;16.80;96.90;;;;;;5026197;28;20029;-34
2022/07/05 01:33:31;;;;;;;5.15;1.98;;;16.80;97.00;;;;;;5024332;28;20049;-34
2022/07/05 01:35:57;;;;;;;3.35;2.33;;;16.70;97.10;;;;;;5025738;28;20100;-34
2022/07/05 01:38:26;;;;;;;3.28;2.20;;;16.70;97.20;;;;;;5024735;28;20496;-34
2022/07/05 01:40:52;;;;;;;3.13;2.25;;;16.70;97.20;;;;;;5025434;28;20022;-33
2022/07/05 01:43:19;;;;;;;2.88;2.20;;;16.70;97.30;;;;;;5025259;28;20038;-34
2022/07/05 01:45:48;;;;;;;4.22;2.40;;;16.70;97.40;;;;;;5025165;28;20056;-33
2022/07/05 01:48:16;;;;;;;4.45;2.50;;;16.70;97.50;;;;;;5025437;28;20036;-33
2022/07/05 01:50:53;;;;;;;3.78;2.33;;;16.70;97.50;;;;;;5005688;28;20436;-34
2022/07/05 01:53:27;;;;;;;2.60;2.15;;;16.60;97.60;;;;;;5010008;28;20025;-34
2022/07/05 01:55:52;;;;;;;2.05;1.92;;;16.60;97.60;;;;;;5023946;28;20033;-33
2022/07/05 01:58:18;;;;;;;2.20;2.00;;;16.50;97.60;;;;;;5009039;28;20087;-34
2022/07/05 02:00:46;;;;;;;2.72;1.85;;;16.50;97.70;;;;;;5025220;28;20071;-34
2022/07/05 02:03:12;;;;;;;3.13;2.65;;;16.40;97.70;;;;;;5025835;28;20046;-34
2022/07/05 02:05:38;;;;;;;3.20;2.20;;;16.40;97.70;;;;;;5025312;28;20021;-34
2022/07/05 02:08:04;;;;;;;3.15;1.80;;;16.40;97.80;;;;;;5025393;28;20036;-34
2022/07/05 02:10:37;;;;;;;3.50;2.30;;;16.40;97.80;;;;;;5025180;28;20037;-34
2022/07/05 02:13:03;;;;;;;2.75;2.40;;;16.40;97.90;;;;;;5025721;28;20025;-33
2022/07/05 02:15:33;;;;;;;3.35;2.47;;;16.40;98.00;;;;;;5024070;28;20523;-34
2022/07/05 02:18:00;;;;;;;3.20;2.40;;;16.40;98.00;;;;;;5025304;28;20117;-35
2022/07/05 02:20:26;;;;;;;3.53;2.60;;;16.40;98.10;;;;;;5024117;28;20389;-35
2022/07/05 02:22:52;;;;;;;3.45;2.80;;;16.40;98.20;;;;;;5025802;28;20389;-34
2022/07/05 02:25:17;;;;;;;3.17;2.72;;;16.30;98.30;;;;;;5025001;28;20044;-34
2022/07/05 02:27:43;;;;;;;3.15;2.42;;;16.30;98.30;;;;;;5024415;28;20033;-35
2022/07/05 02:30:09;;;;;;;3.30;2.45;;;16.40;98.40;;;;;;5024990;28;20038;-34
2022/07/05 02:32:34;;;;;;;3.10;2.80;;;16.30;98.40;;;;;;5024668;28;20036;-33
2022/07/05 02:35:00;;;;;;;2.90;2.60;;;16.40;98.50;;;;;;5024663;28;20171;-33
2022/07/05 02:37:27;;;;;;;2.47;2.28;;;16.40;98.50;;;;;;5024923;28;20177;-35
2022/07/05 02:39:52;;;;;;;3.50;2.45;;;16.40;98.50;;;;;;5026692;28;20014;-34
2022/07/05 02:42:18;;;;;;;3.92;2.88;;;16.40;98.50;;;;;;5027773;28;20041;-35
2022/07/05 02:44:43;;;;;;;2.35;2.15;;;16.40;98.50;;;;;;5028739;28;20032;-34
2022/07/05 02:47:09;;;;;;;2.75;2.30;;;16.40;98.50;;;;;;5028463;28;20029;-33
2022/07/05 02:49:34;;;;;;;2.40;2.20;;;16.40;98.60;;;;;;5027750;28;20075;-35
2022/07/05 02:52:00;;;;;;;2.65;2.40;;;16.40;98.70;;;;;;5028682;28;20079;-34
2022/07/05 02:54:25;;;;;;;4.85;2.42;;;16.40;98.70;;;;;;5027876;28;20071;-34
2022/07/05 02:56:51;;;;;;;3.78;2.20;;;16.40;98.70;;;;;;5027770;28;20021;-35
2022/07/05 02:59:16;;;;;;;2.70;2.15;;;16.40;98.70;;;;;;5028433;28;20026;-34
2022/07/05 03:01:42;;;;;;;3.30;2.00;;;16.50;98.70;;;;;;5027601;28;20060;-35
2022/07/05 03:04:09;;;;;;;2.58;1.98;;;16.50;98.60;;;;;;5027955;28;20130;-34
2022/07/05 03:06:35;;;;;;;3.67;1.85;;;16.50;98.60;;;;;;5027663;28;20032;-35
2022/07/05 03:09:01;;;;;;;1.85;1.70;;;16.60;98.60;;;;;;5028256;28;20388;-34
2022/07/05 03:11:26;;;;;;;2.10;1.80;;;16.60;98.60;;;;;;5027321;28;20025;-34
2022/07/05 03:13:52;;;;;;;3.28;1.95;;;16.50;98.70;;;;;;5027989;28;20026;-35
2022/07/05 03:16:17;;;;;;;3.00;1.90;;;16.50;98.70;;;;;;5028100;28;20025;-34
2022/07/05 03:18:43;;;;;;;2.20;1.63;;;16.50;98.80;;;;;;5027254;28;20585;-34
2022/07/05 03:21:08;;;;;;;1.98;1.75;;;16.50;99.20;;;;;;5027996;28;20029;-34
2022/07/05 03:23:34;;;;;;;2.80;1.85;;;16.50;99.00;;;;;;5027602;28;20041;-34
2022/07/05 03:26:00;;;;;;;2.95;1.95;;;16.50;99.10;;;;;;5027427;28;20033;-35
2022/07/05 03:28:25;;;;;;;3.03;2.05;;;16.50;99.20;;;;;;5027202;28;20049;-35
2022/07/05 03:30:51;;;;;;;1.60;1.50;;;16.50;99.20;;;;;;5026630;28;20048;-35
2022/07/05 03:33:16;;;;;;;2.15;1.90;;;16.50;99.20;;;;;;5027457;28;20090;-34
2022/07/05 03:35:42;;;;;;;2.58;1.80;;;16.60;99.30;;;;;;5027464;28;20086;-34
2022/07/05 03:38:07;;;;;;;3.30;2.10;;;16.60;99.20;;;;;;5026611;28;20103;-34
2022/07/05 03:40:33;;;;;;;1.90;1.70;;;16.70;99.20;;;;;;5027374;28;20322;-33
2022/07/05 03:42:58;;;;;;;1.92;1.60;;;16.70;99.20;;;;;;5027448;28;20025;-32
2022/07/05 03:45:24;;;;;;;3.38;1.65;;;16.80;99.20;;;;;;5026240;28;20080;-34
2022/07/05 03:47:49;;;;;;;1.92;1.77;;;16.80;99.20;;;;;;5027157;28;20415;-34
2022/07/05 03:50:15;;;;;;;2.10;1.90;;;16.70;99.20;;;;;;5026494;28;20507;-33
2022/07/05 03:52:40;;;;;;;3.30;1.80;;;16.70;99.20;;;;;;5026401;28;20461;-34
2022/07/05 03:55:06;;;;;;;3.67;2.13;;;16.80;99.30;;;;;;5027105;28;20493;-34
2022/07/05 03:57:32;;;;;;;1.83;1.70;;;16.70;99.30;;;;;;5025997;28;21121;-35
2022/07/05 03:59:57;;;;;;;3.45;2.17;;;16.70;99.40;;;;;;5026590;28;20025;-34
2022/07/05 04:02:23;;;;;;;4.22;2.05;;;16.70;99.40;;;;;;5026538;28;20076;-33
2022/07/05 04:04:49;;;;;;;4.15;2.22;;;16.70;99.40;;;;;;5027053;28;20036;-34
2022/07/05 04:07:14;;;;;;;2.35;2.00;;;16.70;99.40;;;;;;5026053;28;20061;-34
2022/07/05 04:09:40;;;;;;;3.00;2.22;;;16.70;99.50;;;;;;5026291;28;20104;-34
2022/07/05 04:12:06;;;;;;;2.30;2.10;;;16.70;99.50;;;;;;5027295;28;20543;-34
2022/07/05 04:14:32;;;;;;;3.22;2.20;;;16.80;99.60;;;;;;5024860;28;20061;-33
2022/07/05 04:16:57;;;;;;;2.47;2.10;;;16.70;99.70;;;;;;5026814;28;20036;-33
2022/07/05 04:19:23;;;;;;;1.80;1.70;;;16.70;99.80;;;;;;5026497;28;20425;-34
2022/07/05 04:21:48;;;;;;;2.65;1.80;;;16.70;99.90;;;;;;5025566;28;20116;-35
2022/07/05 04:24:14;;;;;;;2.70;2.20;;;16.70;99.90;;;;;;5026676;28;20041;-33
2022/07/05 04:26:39;;;;;;;3.65;2.38;;;16.70;99.90;;;;;;5026213;28;20029;-34
2022/07/05 04:29:05;;;;;;;2.95;1.90;;;16.70;99.90;;;;;;5025581;28;20183;-34
2022/07/05 04:31:31;;;;;;;3.08;2.30;;;16.80;99.90;;;;;;5026290;28;20108;-34
2022/07/05 04:33:56;;;;;;;2.40;2.20;;;16.80;99.90;;;;;;5025885;28;20465;-34
2022/07/05 04:36:22;;;;;;;4.05;2.55;;;16.80;99.90;;;;;;5026146;28;20030;-33
2022/07/05 04:38:48;;;;;;;3.10;2.10;;;16.80;99.90;;;;;;5026503;28;20067;-34
2022/07/05 04:41:13;;;;;;;5.15;2.50;;;16.80;99.90;;;;;;5025286;28;20026;-34
2022/07/05 04:43:39;;;;;;;3.28;2.70;;;16.80;99.90;;;;;;5026324;28;20041;-34
2022/07/05 04:46:04;;;;;;;3.72;2.80;;;16.80;99.90;;;;;;5026620;28;20028;-34
2022/07/05 04:48:30;;;;;;;3.03;2.50;;;16.80;99.90;;;;;;5025155;28;20033;-33
2022/07/05 04:50:55;;;;;;;4.05;2.58;;;16.90;99.90;;;;;;5026052;28;20377;-33
2022/07/05 04:53:21;;;;;;;6.07;3.15;;;16.90;99.90;;;;;;5026392;28;20033;-35
2022/07/05 04:55:46;;;;;;;4.57;2.95;;;16.90;99.90;;;;;;5024905;28;20465;-35
2022/07/05 04:58:12;;;;;;;3.90;2.80;;;16.90;99.90;;;;;;5025780;28;20481;-34
2022/07/05 05:00:40;;;;;;;3.58;2.90;;;17.00;99.90;;;;;;5025687;28;20521;-34
2022/07/05 05:03:06;;;;;;;3.53;3.22;;;16.90;99.90;;;;;;5024414;28;20041;-35
2022/07/05 05:05:31;;;;;;;4.63;3.80;;;16.90;99.90;;;;;;5025018;28;20018;-34
2022/07/05 05:07:57;;;;;;;3.45;3.00;;;16.90;99.90;;;;;;5026241;28;20055;-33
2022/07/05 05:10:24;;;;;;;4.72;3.60;;;17.00;99.90;;;;;;5024652;28;20064;-34
2022/07/05 05:12:52;;;;;;;4.38;3.97;;;17.00;99.90;;;;;;5026632;28;20152;-34
2022/07/05 05:15:18;;;;;;;4.70;4.18;;;17.10;99.90;;;;;;5025721;28;20078;-34
2022/07/05 05:17:43;;;;;;;4.72;4.30;;;17.10;99.90;;;;;;5024902;28;20033;-35
2022/07/05 05:20:15;;;;;;;5.35;4.75;;;17.10;99.90;;;;;;5026164;28;20026;-34
2022/07/05 05:22:41;;;;;;;6.30;5.27;;;17.20;99.90;;;;;;5025277;28;20172;-35
2022/07/05 05:25:11;;;;;;;6.85;5.20;;;17.20;99.90;;;;;;5025069;28;20022;-35
2022/07/05 05:27:46;;;;;;;5.32;4.80;;;17.30;99.90;;;;;;5024853;28;20017;-33
2022/07/05 05:30:13;;;;;;;7.22;6.20;;;17.30;99.90;;;;;;5025965;28;20432;-33
2022/07/05 05:32:38;;;;;;;9.05;6.38;;;17.30;99.90;;;;;;5021552;28;20022;-33
2022/07/05 05:35:05;;;;;;;7.40;6.70;;;17.30;99.90;;;;;;5025814;28;20479;-33
2022/07/05 05:37:31;;;;;;;8.73;7.82;;;17.40;99.90;;;;;;5023987;28;20029;-34
2022/07/05 05:39:57;;;;;;;8.68;7.20;;;17.40;99.90;;;;;;5025706;28;20455;-34
2022/07/05 05:42:22;;;;;;;7.82;7.03;;;17.50;99.90;;;;;;5025366;28;20077;-34
2022/07/05 05:44:48;;;;;;;7.70;6.93;;;17.50;99.90;;;;;;5024731;28;20048;-33
2022/07/05 05:47:13;;;;;;;8.43;7.50;;;17.50;99.90;;;;;;5024992;28;20033;-34
2022/07/05 05:49:39;;;;;;;8.43;7.63;;;17.60;99.90;;;;;;5035053;28;20400;-33
2022/07/05 05:52:05;;;;;;;9.60;7.90;;;17.70;99.90;;;;;;5031796;28;20377;-33
2022/07/05 05:54:30;;;;;;;8.43;7.53;;;17.70;99.90;;;;;;5023165;28;20236;-34
2022/07/05 05:56:56;;;;;;;8.75;7.13;;;17.70;99.90;;;;;;5023898;28;20048;-34
2022/07/05 05:59:21;;;;;;;10.70;8.30;;;17.70;99.90;;;;;;5022975;28;20499;-34
2022/07/05 06:01:47;;;;;;;8.48;7.57;;;17.80;99.90;;;;;;5023664;28;20485;-33
2022/07/05 06:04:12;;;;;;;10.32;8.80;;;17.80;99.90;;;;;;5023541;28;20036;-34
2022/07/05 06:06:39;;;;;;;10.82;9.02;;;17.80;99.90;;;;;;5024144;28;20338;-36
2022/07/05 06:09:04;;;;;;;9.43;8.50;;;17.90;99.90;;;;;;5024258;28;20061;-34
2022/07/05 06:11:30;;;;;;;8.63;7.82;;;18.00;99.90;;;;;;5023699;28;20464;-36
2022/07/05 06:13:55;;;;;;;8.45;7.40;;;18.00;99.90;;;;;;5025575;28;20025;-34
2022/07/05 06:16:21;;;;;;;8.45;7.63;;;18.00;99.90;;;;;;5027794;28;20511;-34
2022/07/05 06:18:46;;;;;;;7.82;7.03;;;18.10;99.90;;;;;;5015497;28;20477;-34
2022/07/05 06:21:12;;;;;;;8.23;6.60;;;18.10;99.90;;;;;;5027913;28;20033;-35
2022/07/05 06:23:37;;;;;;;8.73;7.07;;;18.10;99.90;;;;;;5016253;28;20096;-34
2022/07/05 06:26:03;;;;;;;8.85;7.95;;;18.10;99.90;;;;;;5026992;28;20091;-35
2022/07/05 06:28:29;;;;;;;9.52;7.88;;;18.10;99.90;;;;;;5017754;28;20506;-35
2022/07/05 06:30:54;;;;;;;10.13;8.20;;;18.10;99.90;;;;;;5025594;28;20032;-34
2022/07/05 06:33:20;;;;;;;10.07;7.30;;;18.20;99.90;;;;;;5020932;28;20572;-34
2022/07/05 06:35:46;;;;;;;8.82;7.45;;;18.20;99.90;;;;;;5020490;28;20037;-35
2022/07/05 06:38:11;;;;;;;8.80;7.95;;;18.20;99.90;;;;;;5024637;28;20377;-33
2022/07/05 06:40:41;;;;;;;8.07;6.97;;;18.20;99.90;;;;;;5018336;28;20037;-34
2022/07/05 06:43:08;;;;;;;8.02;7.22;;;18.20;99.90;;;;;;5026859;28;20448;-34
2022/07/05 06:45:34;;;;;;;8.52;7.45;;;18.10;99.90;;;;;;5020343;28;20141;-35
2022/07/05 06:48:02;;;;;;;8.82;7.88;;;18.00;99.90;;;;;;5027147;28;20025;-34
2022/07/05 06:50:29;;;;;;;11.07;9.25;;;18.00;99.90;;;;;;5027368;28;20507;-33
2022/07/05 06:52:55;;;;;;;9.07;8.18;;;18.00;99.90;;;;;;5028334;28;20067;-33
2022/07/05 06:55:22;;;;;;;9.98;6.90;;;17.90;99.90;;;;;;5027017;28;20065;-34
2022/07/05 06:57:48;;;;;;;8.88;6.72;;;17.90;99.90;;;;;;5027938;28;20134;-35
2022/07/05 07:00:15;;;;;;;7.22;5.70;;;17.90;99.90;;;;;;5027768;28;20120;-35
2022/07/05 07:02:41;;;;;;;8.07;5.88;;;17.90;99.90;;;;;;5026692;28;20053;-35
2022/07/05 07:05:07;;;;;;;5.80;5.18;;;18.00;99.90;;;;;;5027561;28;20107;-35
2022/07/05 07:10:18;;;;;;;4.97;4.57;;;18.00;99.90;;;;;;5023781;28;20036;-35
2022/07/05 07:12:43;;;;;;;5.50;4.78;;;18.10;99.90;;;;;;5027557;28;20025;-34
2022/07/05 07:15:10;;;;;;;6.32;4.57;;;18.10;99.90;;;;;;5027895;28;20052;-36
2022/07/05 07:17:35;;;;;;;5.50;4.90;;;18.20;99.90;;;;;;5026687;28;20112;-35
2022/07/05 07:20:01;;;;;;;4.38;3.95;;;18.20;99.90;;;;;;5027589;28;20529;-35
2022/07/05 07:22:26;;;;;;;5.63;4.30;;;18.20;99.90;;;;;;5027526;28;20064;-35
2022/07/05 07:24:53;;;;;;;4.60;3.47;;;18.30;99.90;;;;;;5025889;28;20346;-35
2022/07/05 07:27:18;;;;;;;4.63;4.18;;;18.40;99.90;;;;;;5027245;28;20461;-35
2022/07/05 07:29:44;;;;;;;5.18;4.68;;;18.40;99.90;;;;;;5027095;28;20027;-35
2022/07/05 07:32:10;;;;;;;5.05;4.25;;;18.50;99.90;;;;;;5027393;28;20040;-34
2022/07/05 07:34:36;;;;;;;4.78;4.22;;;18.60;99.90;;;;;;5025608;28;20025;-34
2022/07/05 07:37:03;;;;;;;4.50;4.10;;;18.70;99.90;;;;;;5015375;28;20028;-34
2022/07/05 07:39:28;;;;;;;4.10;3.75;;;18.90;99.90;;;;;;5026198;28;20048;-34
2022/07/05 07:41:54;;;;;;;4.07;3.58;;;19.00;99.90;;;;;;4998942;28;20452;-36
2022/07/05 07:44:20;;;;;;;4.35;3.60;;;19.20;99.90;;;;;;5026352;28;20072;-34
2022/07/05 07:46:46;;;;;;;5.45;3.97;;;19.40;99.90;;;;;;5014222;28;20465;-35
2022/07/05 07:49:12;;;;;;;4.80;4.10;;;19.50;99.90;;;;;;5027877;28;20018;-35
2022/07/05 07:51:39;;;;;;;4.05;3.72;;;19.70;99.90;;;;;;5014214;28;20018;-34
2022/07/05 07:54:05;;;;;;;4.35;3.60;;;19.90;99.90;;;;;;5024424;28;20057;-35
2022/07/05 07:56:30;;;;;;;3.65;3.30;;;20.00;99.70;;;;;;5016936;28;20056;-33
2022/07/05 07:58:56;;;;;;;3.72;3.30;;;20.20;99.50;;;;;;5009723;28;20037;-35
2022/07/05 08:01:22;;;;;;;4.22;3.47;;;20.20;99.30;;;;;;5014413;28;20055;-33
2022/07/05 08:03:47;;;;;;;3.10;2.80;;;20.30;99.10;;;;;;5012279;28;20076;-34
2022/07/05 08:06:15;;;;;;;3.42;2.50;;;20.40;98.90;;;;;;5010670;28;20029;-35
2022/07/05 08:08:44;;;;;;;4.07;2.90;;;20.40;98.80;;;;;;5015234;28;20034;-35
2022/07/05 08:11:10;;;;;;;2.78;2.50;;;20.50;98.60;;;;;;5009733;28;20477;-35
2022/07/05 08:13:36;;;;;;;2.53;2.33;;;20.60;98.50;;;;;;5015669;28;20084;-34
2022/07/05 08:16:02;;;;;;;2.47;2.20;;;20.70;98.30;;;;;;5008336;28;20053;-34
2022/07/05 08:24:10;;;;;;;2.63;2.20;;;21.00;97.90;;;;;;5017483;28;20052;-36
2022/07/05 08:26:37;;;;;;;2.70;2.30;;;21.10;97.70;;;;;;5025506;28;20432;-36
2022/07/05 08:29:04;;;;;;;5.00;3.35;;;21.20;97.50;;;;;;5026630;28;20082;-33
2022/07/05 08:31:33;;;;;;;3.38;3.08;;;21.20;97.40;;;;;;5025913;28;20354;-34
2022/07/05 08:33:59;;;;;;;3.13;2.83;;;21.30;97.30;;;;;;5025903;28;20049;-33
2022/07/05 08:36:24;;;;;;;3.38;2.85;;;21.30;97.20;;;;;;5026070;28;20045;-33
2022/07/05 08:38:50;;;;;;;3.53;2.80;;;21.30;97.20;;;;;;5024480;28;20045;-35
2022/07/05 08:41:19;;;;;;;3.67;2.60;;;21.30;97.10;;;;;;5025358;28;20027;-35
2022/07/05 08:43:46;;;;;;;3.03;2.45;;;21.40;97.10;;;;;;5025868;28;20460;-35
2022/07/05 08:46:15;;;;;;;2.13;1.90;;;21.40;97.00;;;;;;5025760;28;20547;-34
2022/07/05 08:48:43;;;;;;;5.13;2.80;;;21.50;96.90;;;;;;5024661;28;20120;-34
2022/07/05 08:51:13;;;;;;;3.35;2.63;;;21.50;96.70;;;;;;5026835;28;20109;-35
2022/07/05 08:53:40;;;;;;;2.47;2.15;;;21.60;96.60;;;;;;5025451;28;20045;-34
2022/07/05 08:56:08;;;;;;;2.38;1.70;;;21.70;96.40;;;;;;5025375;28;20096;-35
2022/07/05 08:58:35;;;;;;;2.40;2.00;;;21.80;96.20;;;;;;5025242;28;20025;-35
2022/07/05 09:01:00;;;;;;;2.53;2.33;;;21.90;96.00;;;;;;5025833;28;20029;-36
2022/07/05 09:03:48;;;;;;;3.30;2.95;;;22.00;95.80;;;;;;5024319;28;20029;-35
2022/07/05 09:06:21;;;;;;;2.72;2.53;;;22.00;95.50;;;;;;5026417;28;20032;-35
2022/07/05 09:08:49;;;;;;;5.88;3.38;;;22.00;95.60;;;;;;5024616;28;20025;-35
2022/07/05 09:11:16;;;;;;;4.63;2.90;;;21.90;95.60;;;;;;5026065;28;20022;-34
2022/07/05 09:13:44;;;;;;;2.08;1.92;;;21.80;95.70;;;;;;5025501;28;20025;-35
2022/07/05 09:16:11;;;;;;;1.98;1.77;;;21.70;95.80;;;;;;5026026;28;20040;-35
2022/07/05 09:18:43;;;;;;;2.90;2.20;;;21.70;95.70;;;;;;5025250;28;20046;-36
2022/07/05 09:21:23;;;;;;;3.38;2.38;;;21.70;95.40;;;;;;5025825;28;20237;-35
2022/07/05 09:24:05;;;;;;;2.40;2.20;;;21.80;95.30;;;;;;5024975;28;20033;-35
2022/07/05 09:26:35;;;;;;;2.17;1.98;;;21.90;95.10;;;;;;5025203;28;20036;-33
2022/07/05 09:29:04;;;;;;;2.05;1.90;;;21.90;95.00;;;;;;5025511;28;20432;-34
2022/07/05 09:31:35;;;;;;;2.28;2.08;;;22.10;95.00;;;;;;5024763;28;20108;-36
2022/07/05 09:34:06;;;;;;;3.00;2.25;;;22.20;94.80;;;;;;5025428;28;20083;-35
2022/07/05 09:36:49;;;;;;;3.80;2.20;;;22.20;94.60;;;;;;5024424;28;20453;-35
2022/07/05 09:39:15;;;;;;;2.75;2.05;;;22.30;94.50;;;;;;5012623;28;20029;-34
2022/07/05 09:41:41;;;;;;;4.07;2.15;;;22.20;94.40;;;;;;5025141;28;20026;-35
2022/07/05 09:44:07;;;;;;;2.72;2.25;;;22.00;94.40;;;;;;5024738;28;20183;-36
2022/07/05 09:46:32;;;;;;;3.50;2.75;;;21.80;94.40;;;;;;5025010;28;20116;-34
2022/07/05 09:48:59;;;;;;;4.07;3.38;;;21.60;94.50;;;;;;5026196;28;20037;-35
2022/07/05 09:51:25;;;;;;;4.22;3.83;;;21.60;94.70;;;;;;5027839;28;20033;-34
2022/07/05 09:53:51;;;;;;;4.28;3.88;;;21.50;94.70;;;;;;5028904;28;20041;-33
2022/07/05 09:56:17;;;;;;;3.72;3.42;;;21.50;94.70;;;;;;5028952;28;20030;-34
2022/07/05 09:58:44;;;;;;;4.10;3.60;;;21.50;94.70;;;;;;5028731;28;20167;-34
2022/07/05 10:01:27;;;;;;;3.67;3.38;;;21.50;94.80;;;;;;5028595;28;20471;-35
2022/07/05 10:03:55;;;;;;;3.67;3.38;;;21.60;94.90;;;;;;5028756;28;20087;-34
2022/07/05 10:06:23;;;;;;;4.13;3.05;;;21.70;94.90;;;;;;5027716;28;20037;-34
2022/07/05 10:08:49;;;;;;;3.15;2.85;;;21.80;94.90;;;;;;5029250;28;20656;-35
2022/07/05 10:11:18;;;;;;;4.70;2.80;;;21.90;94.80;;;;;;5028914;28;20536;-35
2022/07/05 10:13:47;;;;;;;4.07;3.30;;;22.00;94.80;;;;;;5028156;28;20087;-35
2022/07/05 10:16:13;;;;;;;3.25;2.95;;;22.00;94.70;;;;;;5028742;28;20083;-35
2022/07/05 10:18:40;;;;;;;3.15;2.70;;;22.00;94.70;;;;;;5028192;28;20471;-36
2022/07/05 10:21:11;;;;;;;4.10;2.78;;;22.00;94.80;;;;;;5029109;28;20017;-36
2022/07/05 10:23:38;;;;;;;3.13;2.80;;;21.90;94.80;;;;;;5029043;28;20461;-36
2022/07/05 10:26:05;;;;;;;5.20;2.53;;;21.90;94.90;;;;;;5028286;28;20597;-34
2022/07/05 10:28:34;;;;;;;1.90;1.80;;;21.80;95.00;;;;;;5028151;28;20510;-36
2022/07/05 10:31:01;;;;;;;3.20;2.90;;;21.80;95.00;;;;;;5029281;28;20021;-35
2022/07/05 10:33:27;;;;;;;3.47;2.65;;;21.80;95.10;;;;;;5027442;28;20024;-35
2022/07/05 10:35:56;;;;;;;3.25;2.42;;;21.80;94.70;;;;;;5028487;28;20025;-35
2022/07/05 10:38:22;;;;;;;2.85;2.50;;;21.70;94.50;;;;;;5029064;28;20021;-35
2022/07/05 10:40:52;;;;;;;2.00;1.80;;;21.80;94.40;;;;;;5027397;28;20024;-35
2022/07/05 10:43:20;;;;;;;2.47;1.88;;;21.90;94.20;;;;;;5028239;28;20140;-34
2022/07/05 10:45:48;;;;;;;3.28;2.00;;;22.00;94.00;;;;;;5028335;28;20106;-35
2022/07/05 10:48:21;;;;;;;3.35;1.60;;;22.10;93.50;;;;;;5027223;28;20033;-35
2022/07/05 10:50:50;;;;;;;1.77;1.50;;;22.20;93.60;;;;;;5028212;28;20022;-36
2022/07/05 10:53:25;;;;;;;3.05;1.60;;;22.30;93.60;;;;;;5028405;28;20037;-35
2022/07/05 10:56:03;;;;;;;2.17;1.92;;;22.50;93.50;;;;;;5027976;28;20211;-34
2022/07/05 10:58:38;;;;;;;2.10;1.90;;;22.60;93.20;;;;;;5027442;28;20032;-34
2022/07/05 11:01:19;;;;;;;3.08;2.00;;;22.70;93.00;;;;;;5026427;28;20509;-34
2022/07/05 11:03:47;;;;;;;2.17;1.70;;;22.80;92.90;;;;;;5024566;28;20036;-35
2022/07/05 11:06:23;;;;;;;2.53;1.77;;;22.80;92.90;;;;;;5028337;28;20030;-35
2022/07/05 11:09:00;;;;;;;1.75;1.60;;;23.00;92.80;;;;;;5027199;28;20032;-34
2022/07/05 11:11:43;;;;;;;2.47;1.63;;;23.10;92.60;;;;;;5027650;28;20057;-37
2022/07/05 11:14:21;;;;;;;;;;;23.20;92.40;;;;;;5026118;28;20036;-35
2022/07/05 11:17:08;;;;;;;3.35;1.58;;;23.30;92.40;;;;;;5027619;28;19909;-34
2022/07/05 11:19:34;;;;;;;1.23;1.10;;;23.30;92.10;;;;;;5011889;28;20274;-35
2022/07/05 11:22:05;;;;;;;1.52;1.20;;;23.30;92.00;;;;;;5027390;28;20441;-36
2022/07/05 11:24:38;;;;;;;1.02;1.00;;;23.30;91.80;;;;;;5028160;28;20046;-35
2022/07/05 11:27:10;;;;;;;1.05;0.95;;;23.20;91.70;;;;;;5027868;28;20028;-36
2022/07/05 11:29:46;;;;;;;1.67;0.93;;;23.20;91.60;;;;;;5012151;28;20071;-35
2022/07/05 11:32:23;;;;;;;1.20;0.90;;;23.30;91.30;;;;;;5027478;28;20034;-35
2022/07/05 11:34:54;;;;;;;3.03;1.17;;;23.30;91.00;;;;;;5024612;28;20100;-34
2022/07/05 11:37:24;;;;;;;0.75;0.70;;;23.40;90.70;;;;;;5027447;28;20017;-35
2022/07/05 11:40:10;;;;;;;0.85;0.80;;;23.40;90.70;;;;;;5026730;28;20029;-34
2022/07/05 11:42:46;;;;;;;0.90;0.70;;;23.40;90.50;;;;;;5026945;28;20140;-35
2022/07/05 11:45:12;;;;;;;0.80;0.80;;;23.40;90.50;;;;;;5024373;28;20108;-35
2022/07/05 11:47:38;;;;;;;1.27;0.60;;;23.30;90.30;;;;;;5027716;28;20090;-35
2022/07/05 11:50:05;;;;;;;0.77;0.73;;;23.20;89.80;;;;;;5026961;28;20026;-35
2022/07/05 11:52:33;;;;;;;1.48;0.82;;;23.10;88.30;;;;;;5027070;28;20022;-35
2022/07/05 11:55:09;;;;;;;0.80;0.70;;;23.00;87.00;;;;;;5027463;28;20268;-34
2022/07/05 11:57:35;;;;;;;0.80;0.45;;;23.00;86.20;;;;;;5026571;28;20013;-34
2022/07/05 12:00:02;;;;;;;1.10;0.80;;;23.10;86.80;;;;;;5027206;28;20392;-35
2022/07/05 12:02:28;;;;;;;1.35;0.90;;;23.00;82.40;;;;;;5026846;28;20068;-34
2022/07/05 12:04:56;;;;;;;1.55;0.63;;;22.80;82.00;;;;;;5025232;28;20041;-35
2022/07/05 12:07:31;;;;;;;1.02;0.73;;;22.60;84.00;;;;;;5027371;28;20025;-34
2022/07/05 12:12:42;;;;;;;0.95;0.60;;;22.60;85.50;;;;;;5026379;28;20163;-35
2022/07/05 12:15:19;;;;;;;1.63;0.85;;;22.70;85.20;;;;;;5026943;28;20069;-35
2022/07/05 12:17:47;;;;;;;1.42;0.80;;;22.80;84.40;;;;;;5026314;28;20037;-34
2022/07/05 12:20:19;;;;;;;0.93;0.60;;;22.80;84.70;;;;;;5026077;28;20026;-34
2022/07/05 12:22:45;;;;;;;1.42;0.70;;;22.80;84.50;;;;;;5026545;28;20049;-34
2022/07/05 12:25:20;;;;;;;0.95;0.77;;;22.90;84.20;;;;;;5026358;28;20037;-36
2022/07/05 12:27:48;;;;;;;1.02;0.63;;;22.90;83.10;;;;;;5026967;28;20099;-34
2022/07/05 12:30:14;;;;;;;0.90;0.73;;;22.80;82.80;;;;;;5025796;28;20025;-36
2022/07/05 12:32:58;;;;;;;0.70;0.70;;;22.80;82.80;;;;;;5025470;28;20022;-35
2022/07/05 12:35:44;;;;;;;1.05;0.68;;;22.80;83.30;;;;;;5026114;28;20026;-35
2022/07/05 12:38:12;;;;;;;1.25;0.68;;;22.90;82.20;;;;;;5026935;28;20040;-35
2022/07/05 12:40:38;;;;;;;1.20;0.50;;;22.90;82.90;;;;;;5025138;28;20018;-35
2022/07/05 12:43:07;;;;;;;2.13;0.88;;;22.90;82.80;;;;;;5026343;28;20041;-34
2022/07/05 12:45:34;;;;;;;0.70;0.63;;;23.00;79.60;;;;;;5025780;28;20041;-44
2022/07/05 12:48:02;;;;;;;0.95;0.60;;;23.00;80.80;;;;;;5025518;28;20090;-35
2022/07/05 12:50:43;;;;;;;2.42;0.70;;;23.00;81.30;;;;;;5025912;28;20013;-36
2022/07/05 12:58:53;;;;;;;2.72;0.85;;;23.10;82.10;;;;;;5026286;28;20099;-34
2022/07/05 13:01:22;;;;;;;2.42;0.80;;;23.10;81.90;;;;;;5025250;28;20045;-35
2022/07/05 13:04:09;;;;;;;3.20;0.85;;;23.10;82.20;;;;;;5025786;28;20044;-35
2022/07/05 13:06:53;;;;;;;1.13;0.60;;;23.20;81.10;;;;;;5025179;28;20037;-35